createdAt,value
2019-01-12T00:00:18.286Z,33.74
2019-01-12T00:01:18.267Z,34.05
2019-01-12T00:02:18.266Z,33.64
2019-01-12T00:03:18.250Z,33.94
2019-01-12T00:04:18.237Z,33.44
2019-01-12T00:05:18.804Z,33.64
2019-01-12T00:06:18.216Z,34.34
2019-01-12T00:07:18.230Z,33.84
2019-01-12T00:08:18.206Z,33.94
2019-01-12T00:09:18.190Z,33.44
2019-01-12T00:10:18.184Z,33.94
2019-01-12T00:11:18.238Z,33.94
2019-01-12T00:12:18.157Z,33.94
2019-01-12T00:13:18.163Z,33.94
2019-01-12T00:14:18.131Z,33.34
2019-01-12T00:15:18.128Z,33.94
2019-01-12T00:16:18.126Z,34.24
2019-01-12T00:17:18.107Z,34.24
2019-01-12T00:18:18.106Z,33.44
2019-01-12T00:19:18.090Z,33.93
2019-01-12T00:20:18.074Z,33.74
2019-01-12T00:21:18.064Z,33.44
2019-01-12T00:22:18.061Z,33.54
2019-01-12T00:23:18.048Z,33.84
2019-01-12T00:24:18.033Z,34.14
2019-01-12T00:25:18.043Z,34.24
2019-01-12T00:26:18.062Z,33.94
2019-01-12T00:27:17.996Z,33.44
2019-01-12T00:28:18.001Z,33.34
2019-01-12T00:29:17.978Z,33.64
2019-01-12T00:30:17.967Z,33.54
2019-01-12T00:31:17.969Z,33.23
2019-01-12T00:32:17.944Z,33.34
2019-01-12T00:33:17.937Z,32.64
2019-01-12T00:34:17.939Z,32.43
2019-01-12T00:35:18.815Z,32.43
2019-01-12T00:36:17.902Z,33.14
2019-01-12T00:37:17.907Z,33.44
2019-01-12T00:38:17.885Z,33.44
2019-01-12T00:39:17.871Z,33.44
2019-01-12T00:40:17.878Z,33.44
2019-01-12T00:41:17.854Z,33.84
2019-01-12T00:42:17.839Z,33.94
2019-01-12T00:43:17.841Z,33.84
2019-01-12T00:44:17.831Z,33.04
2019-01-12T00:45:17.809Z,33.44
2019-01-12T00:46:17.790Z,33.54
2019-01-12T00:47:17.791Z,33.14
2019-01-12T00:48:17.774Z,33.54
2019-01-12T00:49:17.767Z,33.54
2019-01-12T00:50:17.754Z,33.84
2019-01-12T00:51:17.754Z,33.94
2019-01-12T00:52:17.733Z,33.84
2019-01-12T00:53:17.725Z,34.24
2019-01-12T00:54:17.721Z,34.26
2019-01-12T00:55:17.726Z,33.86
2019-01-12T00:56:17.698Z,34.05
2019-01-12T00:57:17.753Z,33.94
2019-01-12T00:58:17.681Z,33.74
2019-01-12T00:59:17.670Z,33.84
2019-01-12T01:00:17.662Z,33.84
2019-01-12T01:01:17.642Z,34.14
2019-01-12T01:02:17.628Z,33.74
2019-01-12T01:03:17.618Z,34.14
2019-01-12T01:04:17.612Z,33.84
2019-01-12T01:05:17.612Z,33.96
2019-01-12T01:06:17.596Z,33.34
2019-01-12T01:07:17.577Z,33.94
2019-01-12T01:08:17.576Z,33.64
2019-01-12T01:09:17.574Z,33.24
2019-01-12T01:10:17.554Z,32.94
2019-01-12T01:11:17.543Z,33.04
2019-01-12T01:12:17.536Z,32.64
2019-01-12T01:13:17.521Z,32.84
2019-01-12T01:14:17.508Z,33.54
2019-01-12T01:15:17.492Z,33.74
2019-01-12T01:16:17.481Z,33.36
2019-01-12T01:17:17.480Z,33.84
2019-01-12T01:18:17.480Z,33.94
2019-01-12T01:19:17.461Z,33.34
2019-01-12T01:20:17.448Z,33.14
2019-01-12T01:21:17.433Z,33.84
2019-01-12T01:22:17.423Z,33.54
2019-01-12T01:23:17.416Z,33.04
2019-01-12T01:24:17.400Z,33.34
2019-01-12T01:25:17.391Z,33.54
2019-01-12T01:26:17.403Z,33.84
2019-01-12T01:27:17.365Z,34.05
2019-01-12T01:28:17.352Z,34.24
2019-01-12T01:29:17.341Z,33.56
2019-01-12T01:30:17.340Z,33.76
2019-01-12T01:31:17.370Z,34.14
2019-01-12T01:32:17.316Z,33.84
2019-01-12T01:33:17.306Z,34.05
2019-01-12T01:34:17.295Z,33.94
2019-01-12T01:35:17.283Z,33.84
2019-01-12T01:36:17.281Z,33.64
2019-01-12T01:37:17.275Z,33.54
2019-01-12T01:38:17.249Z,33.74
2019-01-12T01:39:17.256Z,33.36
2019-01-12T01:40:17.241Z,33.84
2019-01-12T01:41:17.212Z,33.86
2019-01-12T01:42:17.219Z,33.94
2019-01-12T01:43:17.217Z,34.26
2019-01-12T01:44:17.187Z,33.94
2019-01-12T01:45:17.174Z,33.24
2019-01-12T01:46:17.167Z,33.54
2019-01-12T01:47:17.161Z,32.64
2019-01-12T01:48:17.153Z,33.74
2019-01-12T01:49:17.138Z,32.44
2019-01-12T01:50:17.130Z,32.64
2019-01-12T01:51:17.111Z,32.54
2019-01-12T01:52:17.114Z,33.14
2019-01-12T01:53:17.094Z,33.44
2019-01-12T01:54:17.083Z,33.24
2019-01-12T01:55:17.073Z,33.54
2019-01-12T01:56:17.055Z,33.54
2019-01-12T01:57:17.052Z,33.44
2019-01-12T01:58:17.041Z,33.34
2019-01-12T01:59:17.032Z,33.12
2019-01-12T02:00:17.037Z,32.64
2019-01-12T02:01:17.027Z,32.54
2019-01-12T02:02:17.001Z,32.74
2019-01-12T02:03:16.984Z,32.64
2019-01-12T02:04:16.985Z,33.24
2019-01-12T02:05:16.975Z,33.06
2019-01-12T02:06:16.965Z,33.54
2019-01-12T02:07:16.945Z,33.24
2019-01-12T02:08:16.938Z,34.26
2019-01-12T02:09:16.937Z,33.96
2019-01-12T02:10:16.915Z,33.94
2019-01-12T02:11:16.908Z,33.34
2019-01-12T02:12:16.905Z,33.84
2019-01-12T02:13:16.883Z,33.54
2019-01-12T02:14:16.868Z,33.34
2019-01-12T02:15:16.865Z,33.24
2019-01-12T02:16:16.851Z,32.64
2019-01-12T02:17:16.854Z,33.14
2019-01-12T02:18:16.834Z,33.04
2019-01-12T02:19:16.821Z,33.54
2019-01-12T02:20:16.809Z,33.24
2019-01-12T02:21:16.802Z,33.94
2019-01-12T02:22:16.792Z,34.14
2019-01-12T02:23:16.789Z,34.06
2019-01-12T02:24:16.770Z,33.86
2019-01-12T02:25:16.756Z,33.74
2019-01-12T02:26:16.758Z,33.86
2019-01-12T02:27:16.742Z,33.54
2019-01-12T02:28:16.719Z,33.54
2019-01-12T02:29:16.717Z,33.24
2019-01-12T02:30:16.754Z,33.14
2019-01-12T02:31:16.690Z,33.54
2019-01-12T02:32:16.678Z,33.24
2019-01-12T02:33:16.683Z,33.86
2019-01-12T02:34:16.661Z,33.26
2019-01-12T02:35:16.677Z,33.96
2019-01-12T02:36:16.653Z,33.96
2019-01-12T02:37:16.628Z,33.96
2019-01-12T02:38:16.643Z,33.34
2019-01-12T02:39:16.610Z,33.26
2019-01-12T02:40:16.600Z,33.54
2019-01-12T02:41:16.595Z,33.24
2019-01-12T02:42:16.578Z,32.64
2019-01-12T02:43:16.599Z,32.64
2019-01-12T02:44:16.556Z,32.84
2019-01-12T02:45:16.548Z,33.24
2019-01-12T02:46:17.283Z,33.56
2019-01-12T02:47:16.525Z,33.44
2019-01-12T02:48:16.514Z,33.76
2019-01-12T02:49:16.506Z,33.84
2019-01-12T02:50:16.498Z,33.44
2019-01-12T02:51:16.488Z,33.96
2019-01-12T02:52:16.490Z,33.36
2019-01-12T02:53:16.463Z,33.56
2019-01-12T02:54:16.455Z,33.14
2019-01-12T02:55:16.441Z,33.14
2019-01-12T02:56:16.429Z,32.54
2019-01-12T02:57:16.444Z,32.44
2019-01-12T02:58:16.415Z,33.14
2019-01-12T02:59:16.402Z,33.14
2019-01-12T03:00:16.518Z,33.06
2019-01-12T03:01:16.382Z,33.24
2019-01-12T03:02:16.381Z,33.44
2019-01-12T03:03:16.365Z,33.54
2019-01-12T03:04:16.345Z,33.34
2019-01-12T03:05:16.348Z,33.16
2019-01-12T03:06:16.323Z,32.74
2019-01-12T03:07:16.359Z,33.74
2019-01-12T03:08:16.311Z,33.24
2019-01-12T03:09:16.317Z,33.04
2019-01-12T03:10:16.286Z,33.74
2019-01-12T03:11:16.271Z,32.44
2019-01-12T03:12:16.265Z,33.34
2019-01-12T03:13:16.275Z,33.34
2019-01-12T03:14:16.248Z,33.56
2019-01-12T03:15:16.241Z,33.54
2019-01-12T03:16:16.220Z,33.76
2019-01-12T03:17:16.210Z,33.36
2019-01-12T03:18:16.197Z,33.66
2019-01-12T03:19:16.192Z,33.04
2019-01-12T03:20:16.185Z,33.34
2019-01-12T03:21:16.179Z,32.44
2019-01-12T03:22:16.189Z,33.14
2019-01-12T03:23:16.146Z,33.24
2019-01-12T03:24:16.133Z,33.06
2019-01-12T03:25:18.282Z,33.74
2019-01-12T03:26:16.124Z,33.46
2019-01-12T03:27:16.118Z,34.06
2019-01-12T03:28:16.093Z,34.16
2019-01-12T03:29:16.113Z,33.56
2019-01-12T03:30:16.109Z,34.26
2019-01-12T03:31:16.084Z,34.26
2019-01-12T03:32:16.054Z,33.86
2019-01-12T03:33:16.075Z,33.76
2019-01-12T03:34:16.041Z,33.56
2019-01-12T03:35:16.020Z,33.26
2019-01-12T03:36:16.015Z,33.06
2019-01-12T03:37:16.039Z,33.66
2019-01-12T03:38:15.990Z,33.56
2019-01-12T03:39:15.980Z,33.76
2019-01-12T03:40:15.969Z,33.96
2019-01-12T03:41:15.956Z,33.86
2019-01-12T03:42:15.952Z,34.06
2019-01-12T03:43:15.962Z,33.86
2019-01-12T03:44:15.928Z,33.96
2019-01-12T03:45:15.918Z,33.96
2019-01-12T03:46:15.905Z,33.46
2019-01-12T03:47:15.898Z,33.56
2019-01-12T03:48:15.891Z,33.66
2019-01-12T03:49:15.878Z,33.36
2019-01-12T03:50:15.866Z,33.56
2019-01-12T03:51:15.859Z,32.96
2019-01-12T03:52:15.852Z,33.46
2019-01-12T03:53:15.842Z,33.56
2019-01-12T03:54:15.845Z,33.54
2019-01-12T03:55:15.810Z,33.54
2019-01-12T03:56:15.812Z,33.44
2019-01-12T03:57:15.803Z,33.46
2019-01-12T03:58:15.782Z,33.34
2019-01-12T03:59:15.770Z,32.54
2019-01-12T04:00:15.764Z,32.44
2019-01-12T04:01:15.763Z,32.54
2019-01-12T04:02:15.752Z,33.26
2019-01-12T04:03:15.731Z,33.36
2019-01-12T04:04:15.719Z,33.66
2019-01-12T04:05:15.722Z,33.26
2019-01-12T04:06:15.703Z,34.26
2019-01-12T04:07:15.691Z,33.96
2019-01-12T04:08:15.701Z,33.96
2019-01-12T04:09:15.706Z,33.36
2019-01-12T04:10:15.662Z,33.46
2019-01-12T04:11:15.642Z,33.54
2019-01-12T04:12:15.636Z,33.04
2019-01-12T04:13:15.625Z,32.76
2019-01-12T04:14:15.618Z,33.36
2019-01-12T04:15:15.607Z,33.64
2019-01-12T04:16:15.596Z,33.46
2019-01-12T04:17:15.576Z,33.26
2019-01-12T04:18:15.579Z,33.56
2019-01-12T04:19:15.567Z,33.46
2019-01-12T04:20:15.551Z,33.56
2019-01-12T04:21:15.558Z,33.46
2019-01-12T04:22:15.537Z,33.66
2019-01-12T04:23:15.523Z,33.66
2019-01-12T04:24:15.510Z,33.14
2019-01-12T04:25:15.529Z,32.44
2019-01-12T04:26:15.512Z,32.44
2019-01-12T04:27:15.487Z,33.54
2019-01-12T04:28:15.487Z,32.94
2019-01-12T04:29:15.456Z,33.04
2019-01-12T04:30:15.453Z,33.54
2019-01-12T04:31:15.442Z,32.74
2019-01-12T04:32:15.440Z,32.44
2019-01-12T04:33:15.418Z,32.65
2019-01-12T04:34:15.415Z,33.44
2019-01-12T04:35:15.399Z,33.26
2019-01-12T04:36:15.382Z,33.16
2019-01-12T04:37:15.390Z,32.65
2019-01-12T04:38:15.420Z,32.74
2019-01-12T04:39:15.369Z,32.74
2019-01-12T04:40:15.341Z,32.44
2019-01-12T04:41:15.341Z,32.34
2019-01-12T04:42:15.331Z,33.34
2019-01-12T04:43:15.319Z,33.04
2019-01-12T04:44:15.302Z,33.44
2019-01-12T04:45:15.285Z,33.54
2019-01-12T04:46:15.273Z,33.26
2019-01-12T04:47:15.273Z,33.54
2019-01-12T04:48:15.280Z,33.44
2019-01-12T04:49:15.248Z,33.56
2019-01-12T04:50:15.236Z,33.36
2019-01-12T04:51:15.266Z,32.65
2019-01-12T04:52:15.224Z,32.54
2019-01-12T04:53:15.224Z,32.64
2019-01-12T04:54:15.195Z,32.74
2019-01-12T04:55:15.185Z,32.54
2019-01-12T04:56:15.174Z,32.64
2019-01-12T04:57:15.163Z,33.16
2019-01-12T04:58:15.152Z,33.64
2019-01-12T04:59:15.151Z,33.54
2019-01-12T05:00:15.167Z,33.56
2019-01-12T05:01:15.164Z,33.56
2019-01-12T05:02:15.130Z,33.36
2019-01-12T05:03:15.113Z,33.34
2019-01-12T05:04:15.099Z,33.46
2019-01-12T05:05:15.091Z,33.26
2019-01-12T05:06:15.098Z,33.14
2019-01-12T05:07:15.067Z,33.34
2019-01-12T05:08:15.085Z,32.74
2019-01-12T05:09:15.030Z,32.73
2019-01-12T05:10:15.040Z,32.53
2019-01-12T05:11:15.014Z,31.71
2019-01-12T05:12:15.012Z,32.21
2019-01-12T05:13:15.005Z,31.40
2019-01-12T05:14:14.995Z,31.68
2019-01-12T05:15:14.972Z,31.88
2019-01-12T05:16:14.977Z,31.16
2019-01-12T05:17:14.956Z,30.96
2019-01-12T05:18:14.962Z,31.35
2019-01-12T05:19:14.946Z,30.95
2019-01-12T05:20:14.936Z,30.85
2019-01-12T05:21:14.922Z,30.85
2019-01-12T05:22:14.911Z,31.05
2019-01-12T05:23:14.896Z,30.93
2019-01-12T05:24:14.960Z,30.63
2019-01-12T05:25:14.882Z,30.24
2019-01-12T05:26:14.873Z,31.02
2019-01-12T05:27:14.931Z,30.92
2019-01-12T05:28:14.856Z,30.42
2019-01-12T05:29:14.850Z,30.72
2019-01-12T05:30:14.821Z,30.62
2019-01-12T05:31:14.812Z,30.32
2019-01-12T05:32:14.839Z,29.52
2019-01-12T05:33:14.794Z,29.21
2019-01-12T05:34:14.790Z,30.41
2019-01-12T05:35:14.774Z,30.11
2019-01-12T05:36:14.750Z,29.99
2019-01-12T05:37:14.743Z,29.91
2019-01-12T05:38:14.730Z,29.90
2019-01-12T05:39:14.721Z,30.11
2019-01-12T05:40:14.730Z,29.90
2019-01-12T05:41:14.700Z,29.69
2019-01-12T05:42:14.690Z,30.19
2019-01-12T05:43:15.956Z,29.69
2019-01-12T05:44:14.667Z,29.80
2019-01-12T05:45:14.655Z,29.60
2019-01-12T05:46:14.648Z,29.50
2019-01-12T05:47:14.646Z,29.10
2019-01-12T05:48:14.624Z,29.00
2019-01-12T05:49:14.620Z,28.90
2019-01-12T05:50:14.608Z,29.69
2019-01-12T05:51:14.602Z,29.80
2019-01-12T05:52:14.592Z,29.39
2019-01-12T05:53:14.574Z,29.50
2019-01-12T05:54:14.567Z,28.90
2019-01-12T05:55:14.559Z,29.80
2019-01-12T05:56:14.546Z,29.39
2019-01-12T05:57:14.538Z,29.10
2019-01-12T05:58:14.518Z,29.60
2019-01-12T05:59:14.506Z,29.80
2019-01-12T06:00:14.527Z,29.78
2019-01-12T06:01:14.489Z,29.68
2019-01-12T06:02:14.486Z,29.68
2019-01-12T06:03:14.471Z,29.69
2019-01-12T06:04:14.458Z,30.29
2019-01-12T06:05:14.464Z,29.68
2019-01-12T06:06:14.434Z,30.08
2019-01-12T06:07:14.425Z,30.18
2019-01-12T06:08:14.421Z,30.18
2019-01-12T06:09:14.414Z,29.98
2019-01-12T06:10:14.806Z,29.98
2019-01-12T06:11:14.388Z,29.88
2019-01-12T06:12:14.394Z,28.39
2019-01-12T06:13:14.375Z,29.78
2019-01-12T06:14:14.355Z,29.98
2019-01-12T06:15:14.346Z,30.08
2019-01-12T06:16:14.329Z,29.68
2019-01-12T06:17:14.347Z,29.86
2019-01-12T06:18:14.315Z,29.77
2019-01-12T06:19:14.303Z,28.67
2019-01-12T06:20:14.291Z,29.67
2019-01-12T06:21:14.278Z,29.68
2019-01-12T06:22:14.289Z,29.88
2019-01-12T06:23:14.261Z,29.86
2019-01-12T06:24:14.249Z,29.37
2019-01-12T06:25:14.258Z,29.77
2019-01-12T06:26:14.246Z,29.37
2019-01-12T06:27:14.216Z,29.78
2019-01-12T06:28:14.204Z,29.27
2019-01-12T06:29:14.201Z,29.27
2019-01-12T06:30:14.185Z,29.27
2019-01-12T06:31:14.191Z,29.27
2019-01-12T06:32:14.180Z,29.27
2019-01-12T06:33:14.152Z,29.27
2019-01-12T06:34:14.140Z,29.27
2019-01-12T06:35:14.139Z,29.37
2019-01-12T06:36:14.127Z,29.47
2019-01-12T06:37:14.115Z,29.67
2019-01-12T06:38:14.118Z,29.47
2019-01-12T06:39:14.093Z,29.97
2019-01-12T06:40:14.084Z,29.07
2019-01-12T06:41:14.070Z,28.97
2019-01-12T06:42:14.060Z,29.27
2019-01-12T06:43:14.050Z,29.57
2019-01-12T06:44:14.927Z,29.07
2019-01-12T06:45:14.031Z,29.27
2019-01-12T06:46:14.022Z,28.97
2019-01-12T06:47:14.017Z,29.37
2019-01-12T06:48:13.997Z,28.57
2019-01-12T06:49:13.986Z,29.27
2019-01-12T06:50:14.003Z,29.27
2019-01-12T06:51:13.974Z,29.27
2019-01-12T06:52:13.957Z,30.07
2019-01-12T06:53:13.940Z,29.27
2019-01-12T06:54:13.940Z,29.47
2019-01-12T06:55:13.941Z,29.27
2019-01-12T06:56:13.909Z,29.57
2019-01-12T06:57:13.904Z,29.67
2019-01-12T06:58:13.904Z,29.37
2019-01-12T06:59:13.879Z,29.27
2019-01-12T07:00:13.871Z,29.27
2019-01-12T07:01:13.871Z,29.47
2019-01-12T07:02:13.853Z,29.47
2019-01-12T07:03:13.838Z,29.17
2019-01-12T07:04:13.827Z,29.27
2019-01-12T07:05:13.835Z,29.47
2019-01-12T07:06:13.837Z,29.67
2019-01-12T07:07:13.802Z,29.77
2019-01-12T07:08:13.787Z,29.47
2019-01-12T07:09:13.778Z,29.27
2019-01-12T07:10:13.768Z,28.96
2019-01-12T07:11:13.809Z,28.67
2019-01-12T07:12:13.746Z,28.76
2019-01-12T07:13:13.734Z,28.76
2019-01-12T07:14:13.730Z,28.97
2019-01-12T07:15:13.709Z,28.76
2019-01-12T07:16:13.709Z,29.17
2019-01-12T07:17:13.690Z,29.07
2019-01-12T07:18:13.675Z,29.77
2019-01-12T07:19:13.667Z,29.37
2019-01-12T07:20:13.655Z,28.67
2019-01-12T07:21:13.643Z,29.27
2019-01-12T07:22:13.644Z,28.86
2019-01-12T07:23:13.629Z,28.97
2019-01-12T07:24:13.626Z,29.07
2019-01-12T07:25:13.606Z,29.17
2019-01-12T07:26:17.561Z,29.07
2019-01-12T07:27:13.590Z,29.07
2019-01-12T07:28:13.573Z,28.87
2019-01-12T07:29:13.571Z,28.86
2019-01-12T07:30:14.453Z,29.35
2019-01-12T07:31:13.538Z,28.66
2019-01-12T07:32:13.534Z,29.46
2019-01-12T07:33:13.522Z,29.46
2019-01-12T07:34:13.513Z,29.35
2019-01-12T07:35:13.496Z,29.35
2019-01-12T07:36:13.492Z,29.16
2019-01-12T07:37:13.482Z,29.05
2019-01-12T07:38:13.478Z,29.37
2019-01-12T07:39:13.467Z,29.35
2019-01-12T07:40:13.513Z,29.05
2019-01-12T07:41:13.444Z,28.96
2019-01-12T07:42:13.425Z,29.05
2019-01-12T07:43:13.437Z,28.96
2019-01-12T07:44:13.406Z,28.56
2019-01-12T07:45:13.390Z,28.76
2019-01-12T07:46:13.395Z,28.96
2019-01-12T07:47:13.371Z,28.56
2019-01-12T07:48:13.362Z,28.96
2019-01-12T07:49:13.360Z,28.76
2019-01-12T07:50:13.351Z,28.74
2019-01-12T07:51:13.336Z,29.05
2019-01-12T07:52:13.333Z,28.94
2019-01-12T07:53:13.315Z,29.04
2019-01-12T07:54:13.302Z,28.85
2019-01-12T07:55:13.291Z,29.05
2019-01-12T07:56:13.286Z,28.85
2019-01-12T07:57:13.271Z,28.25
2019-01-12T07:58:13.262Z,29.05
2019-01-12T07:59:13.248Z,29.24
2019-01-12T08:00:13.236Z,28.44
2019-01-12T08:01:13.225Z,28.25
2019-01-12T08:02:13.213Z,28.55
2019-01-12T08:03:13.216Z,28.34
2019-01-12T08:04:13.193Z,28.25
2019-01-12T08:05:13.180Z,28.34
2019-01-12T08:06:13.186Z,28.74
2019-01-12T08:07:13.405Z,28.94
2019-01-12T08:08:13.153Z,29.04
2019-01-12T08:09:13.139Z,29.14
2019-01-12T08:10:13.138Z,29.14
2019-01-12T08:11:13.127Z,28.25
2019-01-12T08:12:13.115Z,28.64
2019-01-12T08:13:13.120Z,28.76
2019-01-12T08:14:13.092Z,28.86
2019-01-12T08:15:13.092Z,28.94
2019-01-12T08:16:13.076Z,28.74
2019-01-12T08:17:13.055Z,28.94
2019-01-12T08:18:13.048Z,28.55
2019-01-12T08:19:13.076Z,28.64
2019-01-12T08:20:13.051Z,28.94
2019-01-12T08:21:13.040Z,29.04
2019-01-12T08:22:13.002Z,28.96
2019-01-12T08:23:12.991Z,29.34
2019-01-12T08:24:12.981Z,29.04
2019-01-12T08:25:12.987Z,29.14
2019-01-12T08:26:12.983Z,29.35
2019-01-12T08:27:12.960Z,29.34
2019-01-12T08:28:12.951Z,29.05
2019-01-12T08:29:12.931Z,29.04
2019-01-12T08:30:12.935Z,28.96
2019-01-12T08:31:12.913Z,29.24
2019-01-12T08:32:12.926Z,29.14
2019-01-12T08:33:12.892Z,29.25
2019-01-12T08:34:12.887Z,29.25
2019-01-12T08:35:12.869Z,29.04
2019-01-12T08:36:12.863Z,29.35
2019-01-12T08:37:12.884Z,29.25
2019-01-12T08:38:13.468Z,28.94
2019-01-12T08:39:12.835Z,29.46
2019-01-12T08:40:12.828Z,29.25
2019-01-12T08:41:12.811Z,28.96
2019-01-12T08:42:12.806Z,29.16
2019-01-12T08:43:12.783Z,29.16
2019-01-12T08:44:12.780Z,29.16
2019-01-12T08:45:12.772Z,29.14
2019-01-12T08:46:12.766Z,28.55
2019-01-12T08:47:12.753Z,28.55
2019-01-12T08:48:12.784Z,28.64
2019-01-12T08:49:12.731Z,28.74
2019-01-12T08:50:12.777Z,28.64
2019-01-12T08:51:12.719Z,28.74
2019-01-12T08:52:12.698Z,28.76
2019-01-12T08:53:12.684Z,28.96
2019-01-12T08:54:12.673Z,28.64
2019-01-12T08:55:12.664Z,28.74
2019-01-12T08:56:12.707Z,28.44
2019-01-12T08:57:12.646Z,28.85
2019-01-12T08:58:12.629Z,28.85
2019-01-12T08:59:12.624Z,28.74
2019-01-12T09:00:12.613Z,29.54
2019-01-12T09:01:12.601Z,29.04
2019-01-12T09:02:12.590Z,29.44
2019-01-12T09:03:12.581Z,28.74
2019-01-12T09:04:12.571Z,28.64
2019-01-12T09:05:12.560Z,28.64
2019-01-12T09:06:12.552Z,28.74
2019-01-12T09:07:12.564Z,28.85
2019-01-12T09:08:12.535Z,29.14
2019-01-12T09:09:12.521Z,29.14
2019-01-12T09:10:12.515Z,29.34
2019-01-12T09:11:12.499Z,28.96
2019-01-12T09:12:12.492Z,28.86
2019-01-12T09:13:12.472Z,29.05
2019-01-12T09:14:12.463Z,28.96
2019-01-12T09:15:12.460Z,28.36
2019-01-12T09:16:12.451Z,29.05
2019-01-12T09:17:12.445Z,28.66
2019-01-12T09:18:12.426Z,28.96
2019-01-12T09:19:12.409Z,29.55
2019-01-12T09:20:12.397Z,29.35
2019-01-12T09:21:12.388Z,28.96
2019-01-12T09:22:12.382Z,29.16
2019-01-12T09:23:12.368Z,29.05
2019-01-12T09:24:12.362Z,28.76
2019-01-12T09:25:12.347Z,29.16
2019-01-12T09:26:12.343Z,28.86
2019-01-12T09:27:12.327Z,28.86
2019-01-12T09:28:12.347Z,28.96
2019-01-12T09:29:12.309Z,28.66
2019-01-12T09:30:12.303Z,28.76
2019-01-12T09:31:12.286Z,28.56
2019-01-12T09:32:12.279Z,28.76
2019-01-12T09:33:12.275Z,28.56
2019-01-12T09:34:12.258Z,28.76
2019-01-12T09:35:12.247Z,29.05
2019-01-12T09:36:12.239Z,29.05
2019-01-12T09:37:12.231Z,28.94
2019-01-12T09:38:12.218Z,28.94
2019-01-12T09:39:12.206Z,28.94
2019-01-12T09:40:12.200Z,29.04
2019-01-12T09:41:12.187Z,28.94
2019-01-12T09:42:12.175Z,29.16
2019-01-12T09:43:12.169Z,29.04
2019-01-12T09:44:12.155Z,29.14
2019-01-12T09:45:12.150Z,28.85
2019-01-12T09:46:12.145Z,28.85
2019-01-12T09:47:13.090Z,28.85
2019-01-12T09:48:12.112Z,28.94
2019-01-12T09:49:12.101Z,28.94
2019-01-12T09:50:12.094Z,28.94
2019-01-12T09:51:12.103Z,29.04
2019-01-12T09:52:12.079Z,29.04
2019-01-12T09:53:12.075Z,29.04
2019-01-12T09:54:12.068Z,28.74
2019-01-12T09:55:12.039Z,28.76
2019-01-12T09:56:12.029Z,28.94
2019-01-12T09:57:12.015Z,29.24
2019-01-12T09:58:12.009Z,28.74
2019-01-12T09:59:12.001Z,29.04
2019-01-12T10:00:12.037Z,29.04
2019-01-12T10:01:11.975Z,28.85
2019-01-12T10:02:11.963Z,29.24
2019-01-12T10:03:11.965Z,29.04
2019-01-12T10:04:11.962Z,29.34
2019-01-12T10:05:11.935Z,28.94
2019-01-12T10:06:11.928Z,28.74
2019-01-12T10:07:11.914Z,28.94
2019-01-12T10:08:11.917Z,29.14
2019-01-12T10:09:11.899Z,29.43
2019-01-12T10:10:11.891Z,29.13
2019-01-12T10:11:11.885Z,29.22
2019-01-12T10:12:11.864Z,29.33
2019-01-12T10:13:11.854Z,29.22
2019-01-12T10:14:11.840Z,29.13
2019-01-12T10:15:11.837Z,29.13
2019-01-12T10:16:11.819Z,29.24
2019-01-12T10:17:12.602Z,28.93
2019-01-12T10:18:11.796Z,29.22
2019-01-12T10:19:11.788Z,29.43
2019-01-12T10:20:11.773Z,29.33
2019-01-12T10:21:11.769Z,29.03
2019-01-12T10:22:11.761Z,29.03
2019-01-12T10:23:11.750Z,29.33
2019-01-12T10:24:11.737Z,29.22
2019-01-12T10:25:11.728Z,29.13
2019-01-12T10:26:11.729Z,29.22
2019-01-12T10:27:11.712Z,28.73
2019-01-12T10:28:11.700Z,29.11
2019-01-12T10:29:11.683Z,28.22
2019-01-12T10:30:11.684Z,28.52
2019-01-12T10:31:11.667Z,28.52
2019-01-12T10:32:11.674Z,29.11
2019-01-12T10:33:11.736Z,29.11
2019-01-12T10:34:11.668Z,28.63
2019-01-12T10:35:11.623Z,28.73
2019-01-12T10:36:11.610Z,29.13
2019-01-12T10:37:11.606Z,28.83
2019-01-12T10:38:11.601Z,29.22
2019-01-12T10:39:17.780Z,29.43
2019-01-12T10:40:12.576Z,29.13
2019-01-12T10:41:11.564Z,28.64
2019-01-12T10:42:11.551Z,28.93
2019-01-12T10:43:11.537Z,28.83
2019-01-12T10:44:11.531Z,28.93
2019-01-12T10:45:11.521Z,29.22
2019-01-12T10:46:11.518Z,29.03
2019-01-12T10:47:11.495Z,28.83
2019-01-12T10:48:11.489Z,29.13
2019-01-12T10:49:11.477Z,29.22
2019-01-12T10:50:11.460Z,29.22
2019-01-12T10:51:11.457Z,29.13
2019-01-12T10:52:11.458Z,28.73
2019-01-12T10:53:11.437Z,28.63
2019-01-12T10:54:11.422Z,29.13
2019-01-12T10:55:11.417Z,29.22
2019-01-12T10:56:11.404Z,29.13
2019-01-12T10:57:11.395Z,29.13
2019-01-12T10:58:11.381Z,29.33
2019-01-12T10:59:11.371Z,29.13
2019-01-12T11:00:11.450Z,29.33
2019-01-12T11:01:11.368Z,29.33
2019-01-12T11:02:11.336Z,29.33
2019-01-12T11:03:11.336Z,29.03
2019-01-12T11:04:11.340Z,29.22
2019-01-12T11:05:11.333Z,29.13
2019-01-12T11:06:11.319Z,28.83
2019-01-12T11:07:11.300Z,29.43
2019-01-12T11:08:11.283Z,29.03
2019-01-12T11:09:11.280Z,28.93
2019-01-12T11:10:11.264Z,28.93
2019-01-12T11:11:11.271Z,29.11
2019-01-12T11:12:11.234Z,28.63
2019-01-12T11:13:11.265Z,28.22
2019-01-12T11:14:11.216Z,29.02
2019-01-12T11:15:11.205Z,28.72
2019-01-12T11:16:11.203Z,28.62
2019-01-12T11:17:11.189Z,28.81
2019-01-12T11:18:11.171Z,29.43
2019-01-12T11:19:11.166Z,29.21
2019-01-12T11:20:11.152Z,28.91
2019-01-12T11:21:11.143Z,28.81
2019-01-12T11:22:12.024Z,28.93
2019-01-12T11:23:11.163Z,28.93
2019-01-12T11:24:11.155Z,28.93
2019-01-12T11:25:11.194Z,28.63
2019-01-12T11:26:11.094Z,28.93
2019-01-12T11:27:12.409Z,28.63
2019-01-12T11:28:11.078Z,28.73
2019-01-12T11:29:11.062Z,29.03
2019-01-12T11:30:11.056Z,29.03
2019-01-12T11:31:11.044Z,28.93
2019-01-12T11:32:11.057Z,28.93
2019-01-12T11:33:11.027Z,28.93
2019-01-12T11:34:11.007Z,29.22
2019-01-12T11:35:11.005Z,28.73
2019-01-12T11:36:11.004Z,28.63
2019-01-12T11:37:10.985Z,28.93
2019-01-12T11:38:10.967Z,28.93
2019-01-12T11:39:11.535Z,29.03
2019-01-12T11:40:10.945Z,28.93
2019-01-12T11:41:10.936Z,29.03
2019-01-12T11:42:10.942Z,29.13
2019-01-12T11:43:10.926Z,29.33
2019-01-12T11:44:10.904Z,28.91
2019-01-12T11:45:10.920Z,29.11
2019-01-12T11:46:10.878Z,28.83
2019-01-12T11:47:10.874Z,28.63
2019-01-12T11:48:10.863Z,28.93
2019-01-12T11:49:10.875Z,28.93
2019-01-12T11:50:10.849Z,28.93
2019-01-12T11:51:10.836Z,28.93
2019-01-12T11:52:10.828Z,28.93
2019-01-12T11:53:10.823Z,28.73
2019-01-12T11:54:10.836Z,29.13
2019-01-12T11:55:10.804Z,28.93
2019-01-12T11:56:10.838Z,29.13
2019-01-12T11:57:10.770Z,28.83
2019-01-12T11:58:10.758Z,28.93
2019-01-12T11:59:10.761Z,29.33
2019-01-12T12:00:10.737Z,28.63
2019-01-12T12:01:10.732Z,28.63
2019-01-12T12:02:10.721Z,28.93
2019-01-12T12:03:10.712Z,29.13
2019-01-12T12:04:10.700Z,29.63
2019-01-12T12:05:10.698Z,28.85
2019-01-12T12:06:10.683Z,28.73
2019-01-12T12:07:10.665Z,29.03
2019-01-12T12:08:10.655Z,28.93
2019-01-12T12:09:10.642Z,29.13
2019-01-12T12:10:10.633Z,28.93
2019-01-12T12:11:10.630Z,29.02
2019-01-12T12:12:10.620Z,28.32
2019-01-12T12:13:10.605Z,28.22
2019-01-12T12:14:10.589Z,28.72
2019-01-12T12:15:10.583Z,28.62
2019-01-12T12:16:10.571Z,28.41
2019-01-12T12:17:11.496Z,28.50
2019-01-12T12:18:10.567Z,28.32
2019-01-12T12:19:10.542Z,28.41
2019-01-12T12:20:10.534Z,28.72
2019-01-12T12:21:10.530Z,28.62
2019-01-12T12:22:10.510Z,28.62
2019-01-12T12:23:10.503Z,28.72
2019-01-12T12:24:10.493Z,28.22
2019-01-12T12:25:10.480Z,28.20
2019-01-12T12:26:10.467Z,28.62
2019-01-12T12:27:10.472Z,28.62
2019-01-12T12:28:10.456Z,28.42
2019-01-12T12:29:10.443Z,28.41
2019-01-12T12:30:10.446Z,28.62
2019-01-12T12:31:10.417Z,28.22
2019-01-12T12:32:10.402Z,28.42
2019-01-12T12:33:10.397Z,28.41
2019-01-12T12:34:10.387Z,28.22
2019-01-12T12:35:10.380Z,28.52
2019-01-12T12:36:10.366Z,28.72
2019-01-12T12:37:10.355Z,28.62
2019-01-12T12:38:10.337Z,28.22
2019-01-12T12:39:10.337Z,28.62
2019-01-12T12:40:10.327Z,28.72
2019-01-12T12:41:10.320Z,28.42
2019-01-12T12:42:10.305Z,28.52
2019-01-12T12:43:10.297Z,28.22
2019-01-12T12:44:10.276Z,28.22
2019-01-12T12:45:10.269Z,28.32
2019-01-12T12:46:10.256Z,28.91
2019-01-12T12:47:10.259Z,28.91
2019-01-12T12:48:10.241Z,28.72
2019-01-12T12:49:10.233Z,29.02
2019-01-12T12:50:10.218Z,28.52
2019-01-12T12:51:10.209Z,28.62
2019-01-12T12:52:10.207Z,29.11